sensor_id;sensor_type;location;lat;lon;timestamp;P1;durP1;ratioP1;P2;durP2;ratioP2
38238;SDS011;24035;48.900;9.188;2023-05-16T00:00:06;7.43;;;3.95;;
38238;SDS011;24035;48.900;9.188;2023-05-16T00:02:33;8.25;;;4.53;;
38238;SDS011;24035;48.900;9.188;2023-05-16T00:05:01;7.60;;;3.47;;
38238;SDS011;24035;48.900;9.188;2023-05-16T00:07:28;7.10;;;4.38;;
38238;SDS011;24035;48.900;9.188;2023-05-16T00:09:55;8.10;;;4.35;;
38238;SDS011;24035;48.900;9.188;2023-05-16T00:12:21;7.05;;;3.53;;
38238;SDS011;24035;48.900;9.188;2023-05-16T00:14:47;9.57;;;4.63;;
38238;SDS011;24035;48.900;9.188;2023-05-16T00:17:14;7.68;;;4.22;;
38238;SDS011;24035;48.900;9.188;2023-05-16T00:19:41;8.43;;;4.00;;
38238;SDS011;24035;48.900;9.188;2023-05-16T00:22:08;7.75;;;4.05;;
38238;SDS011;24035;48.900;9.188;2023-05-16T00:24:35;7.35;;;4.28;;
38238;SDS011;24035;48.900;9.188;2023-05-16T00:27:01;6.80;;;4.10;;
38238;SDS011;24035;48.900;9.188;2023-05-16T00:29:28;6.60;;;4.05;;
38238;SDS011;24035;48.900;9.188;2023-05-16T00:32:00;6.32;;;4.13;;
38238;SDS011;24035;48.900;9.188;2023-05-16T00:34:26;8.27;;;4.00;;
38238;SDS011;24035;48.900;9.188;2023-05-16T00:36:52;8.57;;;3.88;;
38238;SDS011;24035;48.900;9.188;2023-05-16T00:39:17;8.13;;;4.72;;
38238;SDS011;24035;48.900;9.188;2023-05-16T00:41:43;8.95;;;4.35;;
38238;SDS011;24035;48.900;9.188;2023-05-16T00:44:10;8.52;;;4.03;;
38238;SDS011;24035;48.900;9.188;2023-05-16T00:46:36;7.03;;;4.30;;
38238;SDS011;24035;48.900;9.188;2023-05-16T00:49:01;7.57;;;4.45;;
38238;SDS011;24035;48.900;9.188;2023-05-16T00:51:27;8.73;;;4.63;;
38238;SDS011;24035;48.900;9.188;2023-05-16T00:53:54;9.13;;;4.72;;
38238;SDS011;24035;48.900;9.188;2023-05-16T00:56:21;10.20;;;4.72;;
38238;SDS011;24035;48.900;9.188;2023-05-16T00:58:46;10.10;;;4.95;;
38238;SDS011;24035;48.900;9.188;2023-05-16T01:01:12;9.02;;;4.43;;
38238;SDS011;24035;48.900;9.188;2023-05-16T01:03:38;7.35;;;4.55;;
38238;SDS011;24035;48.900;9.188;2023-05-16T01:06:04;8.60;;;4.70;;
38238;SDS011;24035;48.900;9.188;2023-05-16T01:08:30;8.63;;;4.93;;
38238;SDS011;24035;48.900;9.188;2023-05-16T01:13:58;15.80;;;6.60;;
38238;SDS011;24035;48.900;9.188;2023-05-16T01:16:49;10.80;;;6.55;;
38238;SDS011;24035;48.900;9.188;2023-05-16T01:22:15;9.60;;;5.72;;
38238;SDS011;24035;48.900;9.188;2023-05-16T01:27:35;10.00;;;5.75;;
38238;SDS011;24035;48.900;9.188;2023-05-16T01:30:11;10.90;;;6.25;;
38238;SDS011;24035;48.900;9.188;2023-05-16T01:32:42;12.27;;;5.85;;
38238;SDS011;24035;48.900;9.188;2023-05-16T01:35:08;9.85;;;5.25;;
38238;SDS011;24035;48.900;9.188;2023-05-16T01:37:37;12.43;;;6.15;;
38238;SDS011;24035;48.900;9.188;2023-05-16T01:40:11;10.75;;;5.57;;
38238;SDS011;24035;48.900;9.188;2023-05-16T01:42:44;9.23;;;4.53;;
38238;SDS011;24035;48.900;9.188;2023-05-16T01:45:19;9.73;;;4.97;;
38238;SDS011;24035;48.900;9.188;2023-05-16T01:50:44;9.43;;;4.95;;
38238;SDS011;24035;48.900;9.188;2023-05-16T01:53:14;12.15;;;5.38;;
38238;SDS011;24035;48.900;9.188;2023-05-16T01:55:47;9.48;;;5.47;;
38238;SDS011;24035;48.900;9.188;2023-05-16T01:58:16;10.85;;;5.70;;
38238;SDS011;24035;48.900;9.188;2023-05-16T02:00:47;11.02;;;6.68;;
38238;SDS011;24035;48.900;9.188;2023-05-16T02:03:13;12.00;;;6.72;;
38238;SDS011;24035;48.900;9.188;2023-05-16T02:05:38;15.15;;;7.57;;
38238;SDS011;24035;48.900;9.188;2023-05-16T02:08:04;11.93;;;7.50;;
38238;SDS011;24035;48.900;9.188;2023-05-16T02:10:30;12.90;;;7.53;;
38238;SDS011;24035;48.900;9.188;2023-05-16T02:12:56;13.77;;;7.72;;
38238;SDS011;24035;48.900;9.188;2023-05-16T02:15:22;14.85;;;8.05;;
38238;SDS011;24035;48.900;9.188;2023-05-16T02:17:47;16.83;;;9.43;;
38238;SDS011;24035;48.900;9.188;2023-05-16T02:20:13;17.92;;;9.55;;
38238;SDS011;24035;48.900;9.188;2023-05-16T02:22:39;17.38;;;9.27;;
38238;SDS011;24035;48.900;9.188;2023-05-16T02:25:06;17.02;;;9.88;;
38238;SDS011;24035;48.900;9.188;2023-05-16T02:27:33;17.17;;;10.07;;
38238;SDS011;24035;48.900;9.188;2023-05-16T02:29:58;17.30;;;10.23;;
38238;SDS011;24035;48.900;9.188;2023-05-16T02:32:24;18.08;;;10.68;;
38238;SDS011;24035;48.900;9.188;2023-05-16T02:34:50;20.05;;;11.38;;
38238;SDS011;24035;48.900;9.188;2023-05-16T02:37:16;19.20;;;10.55;;
38238;SDS011;24035;48.900;9.188;2023-05-16T02:39:41;23.10;;;11.75;;
38238;SDS011;24035;48.900;9.188;2023-05-16T02:42:07;20.17;;;11.52;;
38238;SDS011;24035;48.900;9.188;2023-05-16T02:44:33;20.90;;;11.35;;
38238;SDS011;24035;48.900;9.188;2023-05-16T02:46:58;21.42;;;12.23;;
38238;SDS011;24035;48.900;9.188;2023-05-16T02:49:24;15.82;;;10.38;;
38238;SDS011;24035;48.900;9.188;2023-05-16T02:51:50;18.70;;;10.60;;
38238;SDS011;24035;48.900;9.188;2023-05-16T02:54:16;22.05;;;11.38;;
38238;SDS011;24035;48.900;9.188;2023-05-16T02:56:43;22.48;;;12.43;;
38238;SDS011;24035;48.900;9.188;2023-05-16T02:59:09;20.90;;;11.82;;
38238;SDS011;24035;48.900;9.188;2023-05-16T03:01:35;19.98;;;11.02;;
38238;SDS011;24035;48.900;9.188;2023-05-16T03:04:01;25.08;;;12.50;;
38238;SDS011;24035;48.900;9.188;2023-05-16T03:06:27;20.58;;;11.20;;
38238;SDS011;24035;48.900;9.188;2023-05-16T03:08:54;22.13;;;13.13;;
38238;SDS011;24035;48.900;9.188;2023-05-16T03:11:20;22.83;;;12.63;;
38238;SDS011;24035;48.900;9.188;2023-05-16T03:13:46;22.73;;;12.25;;
38238;SDS011;24035;48.900;9.188;2023-05-16T03:16:13;20.63;;;11.38;;
38238;SDS011;24035;48.900;9.188;2023-05-16T03:18:39;22.38;;;11.75;;
38238;SDS011;24035;48.900;9.188;2023-05-16T03:21:08;26.42;;;13.15;;
38238;SDS011;24035;48.900;9.188;2023-05-16T03:23:34;21.25;;;12.32;;
38238;SDS011;24035;48.900;9.188;2023-05-16T03:25:59;20.80;;;12.02;;
38238;SDS011;24035;48.900;9.188;2023-05-16T03:28:25;21.48;;;11.60;;
38238;SDS011;24035;48.900;9.188;2023-05-16T03:30:51;24.35;;;12.05;;
38238;SDS011;24035;48.900;9.188;2023-05-16T03:33:17;24.10;;;13.05;;
38238;SDS011;24035;48.900;9.188;2023-05-16T03:35:43;28.30;;;13.13;;
38238;SDS011;24035;48.900;9.188;2023-05-16T03:38:10;25.48;;;12.75;;
38238;SDS011;24035;48.900;9.188;2023-05-16T03:40:36;27.77;;;13.60;;
38238;SDS011;24035;48.900;9.188;2023-05-16T03:43:01;26.15;;;15.20;;
38238;SDS011;24035;48.900;9.188;2023-05-16T03:45:30;31.58;;;14.82;;
38238;SDS011;24035;48.900;9.188;2023-05-16T03:47:56;26.38;;;14.15;;
38238;SDS011;24035;48.900;9.188;2023-05-16T03:50:22;27.48;;;15.25;;
38238;SDS011;24035;48.900;9.188;2023-05-16T03:52:48;28.45;;;14.98;;
38238;SDS011;24035;48.900;9.188;2023-05-16T03:55:13;27.33;;;15.20;;
38238;SDS011;24035;48.900;9.188;2023-05-16T03:57:39;25.42;;;15.15;;
38238;SDS011;24035;48.900;9.188;2023-05-16T04:00:09;30.60;;;15.55;;
38238;SDS011;24035;48.900;9.188;2023-05-16T04:02:36;29.40;;;14.57;;
38238;SDS011;24035;48.900;9.188;2023-05-16T04:05:04;26.70;;;14.13;;
38238;SDS011;24035;48.900;9.188;2023-05-16T04:07:34;30.77;;;15.52;;
38238;SDS011;24035;48.900;9.188;2023-05-16T04:10:03;29.35;;;15.35;;
38238;SDS011;24035;48.900;9.188;2023-05-16T04:12:29;27.88;;;15.65;;
38238;SDS011;24035;48.900;9.188;2023-05-16T04:14:54;27.08;;;15.00;;
38238;SDS011;24035;48.900;9.188;2023-05-16T04:17:20;24.77;;;13.25;;
38238;SDS011;24035;48.900;9.188;2023-05-16T04:19:46;25.77;;;14.02;;
38238;SDS011;24035;48.900;9.188;2023-05-16T04:22:11;30.40;;;15.10;;
38238;SDS011;24035;48.900;9.188;2023-05-16T04:24:37;31.23;;;15.10;;
38238;SDS011;24035;48.900;9.188;2023-05-16T04:27:03;30.30;;;15.57;;
38238;SDS011;24035;48.900;9.188;2023-05-16T04:29:29;31.17;;;16.05;;
38238;SDS011;24035;48.900;9.188;2023-05-16T04:31:56;26.05;;;14.00;;
38238;SDS011;24035;48.900;9.188;2023-05-16T04:34:21;28.60;;;15.60;;
38238;SDS011;24035;48.900;9.188;2023-05-16T04:36:52;31.88;;;15.00;;
38238;SDS011;24035;48.900;9.188;2023-05-16T04:39:21;29.10;;;15.60;;
38238;SDS011;24035;48.900;9.188;2023-05-16T04:41:46;30.95;;;16.67;;
38238;SDS011;24035;48.900;9.188;2023-05-16T04:44:12;28.90;;;16.02;;
38238;SDS011;24035;48.900;9.188;2023-05-16T04:46:38;32.60;;;15.88;;
38238;SDS011;24035;48.900;9.188;2023-05-16T04:49:04;34.45;;;16.73;;
38238;SDS011;24035;48.900;9.188;2023-05-16T04:51:30;31.02;;;14.90;;
38238;SDS011;24035;48.900;9.188;2023-05-16T04:53:57;29.38;;;15.60;;
38238;SDS011;24035;48.900;9.188;2023-05-16T04:56:23;31.73;;;16.52;;
38238;SDS011;24035;48.900;9.188;2023-05-16T04:58:50;31.27;;;15.90;;
38238;SDS011;24035;48.900;9.188;2023-05-16T05:01:16;27.95;;;15.05;;
38238;SDS011;24035;48.900;9.188;2023-05-16T05:03:42;28.23;;;15.40;;
38238;SDS011;24035;48.900;9.188;2023-05-16T05:06:08;24.67;;;13.90;;
38238;SDS011;24035;48.900;9.188;2023-05-16T05:08:33;25.90;;;14.82;;
38238;SDS011;24035;48.900;9.188;2023-05-16T05:10:59;25.15;;;13.63;;
38238;SDS011;24035;48.900;9.188;2023-05-16T05:13:25;28.38;;;14.23;;
38238;SDS011;24035;48.900;9.188;2023-05-16T05:15:51;29.20;;;14.55;;
38238;SDS011;24035;48.900;9.188;2023-05-16T05:18:17;24.88;;;14.38;;
38238;SDS011;24035;48.900;9.188;2023-05-16T05:20:43;25.52;;;14.18;;
38238;SDS011;24035;48.900;9.188;2023-05-16T05:23:09;28.17;;;13.77;;
38238;SDS011;24035;48.900;9.188;2023-05-16T05:25:35;25.50;;;13.80;;
38238;SDS011;24035;48.900;9.188;2023-05-16T05:28:01;22.77;;;13.05;;
38238;SDS011;24035;48.900;9.188;2023-05-16T05:30:28;23.30;;;13.65;;
38238;SDS011;24035;48.900;9.188;2023-05-16T05:32:53;26.73;;;14.35;;
38238;SDS011;24035;48.900;9.188;2023-05-16T05:35:19;24.02;;;13.38;;
38238;SDS011;24035;48.900;9.188;2023-05-16T05:37:45;23.27;;;12.98;;
38238;SDS011;24035;48.900;9.188;2023-05-16T05:40:11;24.42;;;13.48;;
38238;SDS011;24035;48.900;9.188;2023-05-16T05:42:37;29.42;;;13.80;;
38238;SDS011;24035;48.900;9.188;2023-05-16T05:45:03;25.08;;;13.60;;
38238;SDS011;24035;48.900;9.188;2023-05-16T05:47:29;27.50;;;13.85;;
38238;SDS011;24035;48.900;9.188;2023-05-16T05:49:55;28.50;;;13.90;;
38238;SDS011;24035;48.900;9.188;2023-05-16T05:52:21;25.95;;;13.40;;
38238;SDS011;24035;48.900;9.188;2023-05-16T05:54:47;24.05;;;12.85;;
38238;SDS011;24035;48.900;9.188;2023-05-16T05:57:12;19.88;;;13.07;;
38238;SDS011;24035;48.900;9.188;2023-05-16T05:59:38;21.30;;;12.07;;
38238;SDS011;24035;48.900;9.188;2023-05-16T06:02:04;23.08;;;12.73;;
38238;SDS011;24035;48.900;9.188;2023-05-16T06:04:29;21.67;;;12.10;;
38238;SDS011;24035;48.900;9.188;2023-05-16T06:06:55;21.33;;;11.65;;
38238;SDS011;24035;48.900;9.188;2023-05-16T06:09:21;22.48;;;10.98;;
38238;SDS011;24035;48.900;9.188;2023-05-16T06:11:48;19.73;;;11.45;;
38238;SDS011;24035;48.900;9.188;2023-05-16T06:14:14;20.45;;;10.90;;
38238;SDS011;24035;48.900;9.188;2023-05-16T06:16:40;20.90;;;11.35;;
38238;SDS011;24035;48.900;9.188;2023-05-16T06:19:06;21.48;;;11.13;;
38238;SDS011;24035;48.900;9.188;2023-05-16T06:21:32;17.98;;;11.02;;
38238;SDS011;24035;48.900;9.188;2023-05-16T06:23:58;21.50;;;11.25;;
38238;SDS011;24035;48.900;9.188;2023-05-16T06:26:24;23.63;;;11.07;;
38238;SDS011;24035;48.900;9.188;2023-05-16T06:28:49;18.35;;;10.73;;
38238;SDS011;24035;48.900;9.188;2023-05-16T06:31:15;19.30;;;12.40;;
38238;SDS011;24035;48.900;9.188;2023-05-16T06:33:41;17.42;;;10.82;;
38238;SDS011;24035;48.900;9.188;2023-05-16T06:36:06;28.15;;;11.57;;
38238;SDS011;24035;48.900;9.188;2023-05-16T06:38:32;22.08;;;11.40;;
38238;SDS011;24035;48.900;9.188;2023-05-16T06:40:58;19.92;;;10.95;;
38238;SDS011;24035;48.900;9.188;2023-05-16T06:43:23;16.55;;;9.95;;
38238;SDS011;24035;48.900;9.188;2023-05-16T06:45:49;17.90;;;9.70;;
38238;SDS011;24035;48.900;9.188;2023-05-16T06:48:16;20.05;;;10.10;;
38238;SDS011;24035;48.900;9.188;2023-05-16T06:50:46;18.95;;;11.18;;
38238;SDS011;24035;48.900;9.188;2023-05-16T06:53:18;17.02;;;9.60;;
38238;SDS011;24035;48.900;9.188;2023-05-16T06:55:44;15.73;;;8.65;;
38238;SDS011;24035;48.900;9.188;2023-05-16T06:58:10;13.32;;;8.23;;
38238;SDS011;24035;48.900;9.188;2023-05-16T07:00:36;17.45;;;9.30;;
38238;SDS011;24035;48.900;9.188;2023-05-16T07:03:01;14.40;;;8.48;;
38238;SDS011;24035;48.900;9.188;2023-05-16T07:05:28;20.02;;;8.32;;
38238;SDS011;24035;48.900;9.188;2023-05-16T07:07:53;14.02;;;7.93;;
38238;SDS011;24035;48.900;9.188;2023-05-16T07:10:19;13.65;;;7.70;;
38238;SDS011;24035;48.900;9.188;2023-05-16T07:12:45;14.05;;;7.90;;
38238;SDS011;24035;48.900;9.188;2023-05-16T07:15:12;12.98;;;7.90;;
38238;SDS011;24035;48.900;9.188;2023-05-16T07:17:38;12.60;;;7.22;;
38238;SDS011;24035;48.900;9.188;2023-05-16T07:20:05;12.10;;;7.43;;
38238;SDS011;24035;48.900;9.188;2023-05-16T07:22:32;12.73;;;6.63;;
38238;SDS011;24035;48.900;9.188;2023-05-16T07:24:58;11.80;;;7.45;;
38238;SDS011;24035;48.900;9.188;2023-05-16T07:27:25;13.18;;;6.93;;
38238;SDS011;24035;48.900;9.188;2023-05-16T07:29:52;11.00;;;6.20;;
38238;SDS011;24035;48.900;9.188;2023-05-16T07:32:17;11.02;;;6.35;;
38238;SDS011;24035;48.900;9.188;2023-05-16T07:34:43;10.13;;;5.72;;
38238;SDS011;24035;48.900;9.188;2023-05-16T07:37:08;10.93;;;6.40;;
38238;SDS011;24035;48.900;9.188;2023-05-16T07:39:40;11.25;;;6.35;;
38238;SDS011;24035;48.900;9.188;2023-05-16T07:42:06;9.93;;;5.68;;
38238;SDS011;24035;48.900;9.188;2023-05-16T07:44:32;9.70;;;6.10;;
38238;SDS011;24035;48.900;9.188;2023-05-16T07:46:58;11.85;;;5.85;;
38238;SDS011;24035;48.900;9.188;2023-05-16T07:49:24;9.65;;;6.05;;
38238;SDS011;24035;48.900;9.188;2023-05-16T07:51:50;12.50;;;6.95;;
38238;SDS011;24035;48.900;9.188;2023-05-16T07:54:16;10.35;;;6.20;;
38238;SDS011;24035;48.900;9.188;2023-05-16T07:56:41;8.77;;;5.22;;
38238;SDS011;24035;48.900;9.188;2023-05-16T07:59:07;9.65;;;5.55;;
38238;SDS011;24035;48.900;9.188;2023-05-16T08:01:33;10.90;;;5.25;;
38238;SDS011;24035;48.900;9.188;2023-05-16T08:03:59;14.43;;;4.72;;
38238;SDS011;24035;48.900;9.188;2023-05-16T08:06:25;11.20;;;5.60;;
38238;SDS011;24035;48.900;9.188;2023-05-16T08:08:51;12.02;;;6.57;;
38238;SDS011;24035;48.900;9.188;2023-05-16T08:11:18;10.25;;;6.07;;
38238;SDS011;24035;48.900;9.188;2023-05-16T08:13:44;10.60;;;6.43;;
38238;SDS011;24035;48.900;9.188;2023-05-16T08:16:09;9.10;;;6.10;;
38238;SDS011;24035;48.900;9.188;2023-05-16T08:18:35;12.63;;;6.95;;
38238;SDS011;24035;48.900;9.188;2023-05-16T08:21:01;14.13;;;7.22;;
38238;SDS011;24035;48.900;9.188;2023-05-16T08:23:27;12.82;;;6.97;;
38238;SDS011;24035;48.900;9.188;2023-05-16T08:25:52;12.60;;;7.30;;
38238;SDS011;24035;48.900;9.188;2023-05-16T08:28:18;12.02;;;6.97;;
38238;SDS011;24035;48.900;9.188;2023-05-16T08:30:44;13.77;;;7.03;;
38238;SDS011;24035;48.900;9.188;2023-05-16T08:33:10;14.35;;;8.13;;
38238;SDS011;24035;48.900;9.188;2023-05-16T08:35:35;15.77;;;7.70;;
38238;SDS011;24035;48.900;9.188;2023-05-16T08:38:01;15.50;;;7.30;;
38238;SDS011;24035;48.900;9.188;2023-05-16T08:40:27;16.92;;;7.47;;
38238;SDS011;24035;48.900;9.188;2023-05-16T08:42:53;13.07;;;8.18;;
38238;SDS011;24035;48.900;9.188;2023-05-16T08:45:19;13.85;;;7.97;;
38238;SDS011;24035;48.900;9.188;2023-05-16T08:47:47;13.73;;;7.55;;
38238;SDS011;24035;48.900;9.188;2023-05-16T08:50:15;15.07;;;8.95;;
38238;SDS011;24035;48.900;9.188;2023-05-16T08:52:41;18.35;;;9.02;;
38238;SDS011;24035;48.900;9.188;2023-05-16T08:55:08;14.85;;;8.43;;
38238;SDS011;24035;48.900;9.188;2023-05-16T08:57:35;14.18;;;8.18;;
38238;SDS011;24035;48.900;9.188;2023-05-16T09:00:02;14.68;;;9.45;;
38238;SDS011;24035;48.900;9.188;2023-05-16T09:02:36;16.25;;;9.65;;
38238;SDS011;24035;48.900;9.188;2023-05-16T09:05:03;16.65;;;9.25;;
38238;SDS011;24035;48.900;9.188;2023-05-16T09:07:30;14.23;;;8.60;;
38238;SDS011;24035;48.900;9.188;2023-05-16T09:09:56;15.82;;;9.20;;
38238;SDS011;24035;48.900;9.188;2023-05-16T09:12:21;17.45;;;9.07;;
38238;SDS011;24035;48.900;9.188;2023-05-16T09:14:47;16.13;;;8.80;;
38238;SDS011;24035;48.900;9.188;2023-05-16T09:17:13;18.75;;;9.80;;
38238;SDS011;24035;48.900;9.188;2023-05-16T09:19:43;19.65;;;10.45;;
38238;SDS011;24035;48.900;9.188;2023-05-16T09:22:12;17.17;;;9.85;;
38238;SDS011;24035;48.900;9.188;2023-05-16T09:24:39;18.75;;;10.38;;
38238;SDS011;24035;48.900;9.188;2023-05-16T09:27:06;18.70;;;9.65;;
38238;SDS011;24035;48.900;9.188;2023-05-16T09:29:33;17.42;;;9.43;;
38238;SDS011;24035;48.900;9.188;2023-05-16T09:32:09;18.60;;;10.32;;
38238;SDS011;24035;48.900;9.188;2023-05-16T09:34:38;18.40;;;10.05;;
38238;SDS011;24035;48.900;9.188;2023-05-16T09:37:16;16.75;;;9.25;;
38238;SDS011;24035;48.900;9.188;2023-05-16T09:39:46;19.42;;;9.90;;
38238;SDS011;24035;48.900;9.188;2023-05-16T09:42:13;17.92;;;10.07;;
38238;SDS011;24035;48.900;9.188;2023-05-16T09:44:40;16.13;;;9.45;;
38238;SDS011;24035;48.900;9.188;2023-05-16T09:47:20;14.75;;;9.25;;
38238;SDS011;24035;48.900;9.188;2023-05-16T09:49:47;23.58;;;11.43;;
38238;SDS011;24035;48.900;9.188;2023-05-16T09:52:16;19.98;;;9.05;;
38238;SDS011;24035;48.900;9.188;2023-05-16T09:54:43;17.83;;;10.10;;
38238;SDS011;24035;48.900;9.188;2023-05-16T09:57:16;18.67;;;9.50;;
38238;SDS011;24035;48.900;9.188;2023-05-16T09:59:42;18.92;;;9.00;;
38238;SDS011;24035;48.900;9.188;2023-05-16T10:02:09;17.27;;;8.77;;
38238;SDS011;24035;48.900;9.188;2023-05-16T10:04:37;14.68;;;8.80;;
38238;SDS011;24035;48.900;9.188;2023-05-16T10:07:02;16.63;;;9.23;;
38238;SDS011;24035;48.900;9.188;2023-05-16T10:09:32;15.68;;;7.93;;
38238;SDS011;24035;48.900;9.188;2023-05-16T10:11:59;16.85;;;8.95;;
38238;SDS011;24035;48.900;9.188;2023-05-16T10:14:34;14.57;;;8.07;;
38238;SDS011;24035;48.900;9.188;2023-05-16T10:17:05;15.05;;;7.85;;
38238;SDS011;24035;48.900;9.188;2023-05-16T10:19:36;18.02;;;8.95;;
38238;SDS011;24035;48.900;9.188;2023-05-16T10:22:04;18.63;;;8.13;;
38238;SDS011;24035;48.900;9.188;2023-05-16T10:24:36;14.02;;;7.72;;
38238;SDS011;24035;48.900;9.188;2023-05-16T10:27:08;14.80;;;8.40;;
38238;SDS011;24035;48.900;9.188;2023-05-16T10:29:35;13.38;;;7.25;;
38238;SDS011;24035;48.900;9.188;2023-05-16T10:32:02;16.40;;;7.72;;
38238;SDS011;24035;48.900;9.188;2023-05-16T10:34:29;16.00;;;7.65;;
38238;SDS011;24035;48.900;9.188;2023-05-16T10:36:55;15.98;;;6.88;;
38238;SDS011;24035;48.900;9.188;2023-05-16T10:39:21;14.82;;;7.10;;
38238;SDS011;24035;48.900;9.188;2023-05-16T10:41:47;14.43;;;7.53;;
38238;SDS011;24035;48.900;9.188;2023-05-16T10:44:13;16.25;;;7.20;;
38238;SDS011;24035;48.900;9.188;2023-05-16T10:46:42;12.23;;;6.80;;
38238;SDS011;24035;48.900;9.188;2023-05-16T10:51:52;11.40;;;6.50;;
38238;SDS011;24035;48.900;9.188;2023-05-16T10:54:36;11.35;;;5.75;;
38238;SDS011;24035;48.900;9.188;2023-05-16T10:59:47;11.25;;;5.50;;
38238;SDS011;24035;48.900;9.188;2023-05-16T11:04:57;11.15;;;4.65;;
38238;SDS011;24035;48.900;9.188;2023-05-16T11:07:24;9.60;;;4.18;;
38238;SDS011;24035;48.900;9.188;2023-05-16T11:10:04;7.63;;;3.90;;
38238;SDS011;24035;48.900;9.188;2023-05-16T11:12:44;7.90;;;4.07;;
38238;SDS011;24035;48.900;9.188;2023-05-16T11:15:19;6.70;;;4.03;;
38238;SDS011;24035;48.900;9.188;2023-05-16T11:17:46;6.75;;;3.65;;
38238;SDS011;24035;48.900;9.188;2023-05-16T11:20:31;6.75;;;3.85;;
38238;SDS011;24035;48.900;9.188;2023-05-16T11:25:47;6.72;;;3.20;;
38238;SDS011;24035;48.900;9.188;2023-05-16T11:28:16;7.95;;;4.00;;
38238;SDS011;24035;48.900;9.188;2023-05-16T11:30:50;10.13;;;3.88;;
38238;SDS011;24035;48.900;9.188;2023-05-16T11:33:22;6.57;;;3.55;;
38238;SDS011;24035;48.900;9.188;2023-05-16T11:36:04;6.40;;;3.42;;
38238;SDS011;24035;48.900;9.188;2023-05-16T11:38:32;8.38;;;3.47;;
38238;SDS011;24035;48.900;9.188;2023-05-16T11:41:04;5.55;;;3.10;;
38238;SDS011;24035;48.900;9.188;2023-05-16T11:43:41;11.18;;;3.92;;
38238;SDS011;24035;48.900;9.188;2023-05-16T11:46:11;5.93;;;3.10;;
38238;SDS011;24035;48.900;9.188;2023-05-16T11:48:38;7.50;;;3.50;;
38238;SDS011;24035;48.900;9.188;2023-05-16T11:51:04;5.95;;;3.20;;
38238;SDS011;24035;48.900;9.188;2023-05-16T11:53:30;5.40;;;2.80;;
38238;SDS011;24035;48.900;9.188;2023-05-16T11:55:56;5.97;;;3.13;;
38238;SDS011;24035;48.900;9.188;2023-05-16T11:58:24;6.63;;;3.10;;
38238;SDS011;24035;48.900;9.188;2023-05-16T12:00:50;5.68;;;2.60;;
38238;SDS011;24035;48.900;9.188;2023-05-16T12:03:17;5.82;;;2.60;;
38238;SDS011;24035;48.900;9.188;2023-05-16T12:05:54;5.97;;;2.45;;
38238;SDS011;24035;48.900;9.188;2023-05-16T12:08:21;4.68;;;2.20;;
38238;SDS011;24035;48.900;9.188;2023-05-16T12:10:48;4.45;;;1.85;;
38238;SDS011;24035;48.900;9.188;2023-05-16T12:13:16;4.57;;;2.13;;
38238;SDS011;24035;48.900;9.188;2023-05-16T12:15:45;4.00;;;1.70;;
38238;SDS011;24035;48.900;9.188;2023-05-16T12:18:12;8.13;;;2.10;;
38238;SDS011;24035;48.900;9.188;2023-05-16T12:20:38;6.07;;;1.92;;
38238;SDS011;24035;48.900;9.188;2023-05-16T12:23:04;4.50;;;1.73;;
38238;SDS011;24035;48.900;9.188;2023-05-16T12:25:35;3.15;;;1.40;;
38238;SDS011;24035;48.900;9.188;2023-05-16T12:28:05;3.30;;;1.45;;
38238;SDS011;24035;48.900;9.188;2023-05-16T12:30:32;4.85;;;1.48;;
38238;SDS011;24035;48.900;9.188;2023-05-16T12:32:58;3.55;;;1.65;;
38238;SDS011;24035;48.900;9.188;2023-05-16T12:35:30;4.75;;;1.52;;
38238;SDS011;24035;48.900;9.188;2023-05-16T12:37:57;2.92;;;1.30;;
38238;SDS011;24035;48.900;9.188;2023-05-16T12:40:26;3.78;;;1.70;;
38238;SDS011;24035;48.900;9.188;2023-05-16T12:42:53;3.25;;;1.65;;
38238;SDS011;24035;48.900;9.188;2023-05-16T12:45:20;3.65;;;1.67;;
38238;SDS011;24035;48.900;9.188;2023-05-16T12:47:47;3.45;;;1.40;;
38238;SDS011;24035;48.900;9.188;2023-05-16T12:50:13;3.63;;;1.50;;
38238;SDS011;24035;48.900;9.188;2023-05-16T12:52:54;3.47;;;1.33;;
38238;SDS011;24035;48.900;9.188;2023-05-16T12:55:23;2.83;;;1.20;;
38238;SDS011;24035;48.900;9.188;2023-05-16T12:57:50;2.78;;;1.00;;
38238;SDS011;24035;48.900;9.188;2023-05-16T13:00:17;2.80;;;0.93;;
38238;SDS011;24035;48.900;9.188;2023-05-16T13:02:44;2.50;;;1.20;;
38238;SDS011;24035;48.900;9.188;2023-05-16T13:05:11;2.95;;;1.23;;
38238;SDS011;24035;48.900;9.188;2023-05-16T13:07:37;2.97;;;1.00;;
38238;SDS011;24035;48.900;9.188;2023-05-16T13:10:08;2.30;;;0.98;;
38238;SDS011;24035;48.900;9.188;2023-05-16T13:12:35;2.92;;;0.85;;
38238;SDS011;24035;48.900;9.188;2023-05-16T13:15:05;2.25;;;1.00;;
38238;SDS011;24035;48.900;9.188;2023-05-16T13:17:32;3.75;;;1.00;;
38238;SDS011;24035;48.900;9.188;2023-05-16T13:20:01;3.53;;;0.93;;
38238;SDS011;24035;48.900;9.188;2023-05-16T13:22:33;3.37;;;0.87;;
38238;SDS011;24035;48.900;9.188;2023-05-16T13:25:00;3.53;;;0.95;;
38238;SDS011;24035;48.900;9.188;2023-05-16T13:27:26;2.55;;;1.23;;
38238;SDS011;24035;48.900;9.188;2023-05-16T13:29:51;4.22;;;1.45;;
38238;SDS011;24035;48.900;9.188;2023-05-16T13:32:17;3.28;;;1.13;;
38238;SDS011;24035;48.900;9.188;2023-05-16T13:34:43;2.10;;;0.85;;
38238;SDS011;24035;48.900;9.188;2023-05-16T13:37:08;2.60;;;1.10;;
38238;SDS011;24035;48.900;9.188;2023-05-16T13:39:34;2.72;;;1.13;;
38238;SDS011;24035;48.900;9.188;2023-05-16T13:42:00;2.55;;;0.85;;
38238;SDS011;24035;48.900;9.188;2023-05-16T13:44:27;2.35;;;0.90;;
38238;SDS011;24035;48.900;9.188;2023-05-16T13:46:53;2.00;;;0.80;;
38238;SDS011;24035;48.900;9.188;2023-05-16T13:49:18;4.53;;;0.80;;
38238;SDS011;24035;48.900;9.188;2023-05-16T13:51:44;2.40;;;0.90;;
38238;SDS011;24035;48.900;9.188;2023-05-16T13:54:11;2.85;;;0.98;;
38238;SDS011;24035;48.900;9.188;2023-05-16T13:56:37;2.20;;;0.95;;
38238;SDS011;24035;48.900;9.188;2023-05-16T13:59:03;2.40;;;1.05;;
38238;SDS011;24035;48.900;9.188;2023-05-16T14:01:28;2.35;;;1.00;;
38238;SDS011;24035;48.900;9.188;2023-05-16T14:03:54;1.70;;;0.82;;
38238;SDS011;24035;48.900;9.188;2023-05-16T14:06:20;3.20;;;1.20;;
38238;SDS011;24035;48.900;9.188;2023-05-16T14:08:46;6.60;;;1.10;;
38238;SDS011;24035;48.900;9.188;2023-05-16T14:11:11;2.42;;;0.80;;
38238;SDS011;24035;48.900;9.188;2023-05-16T14:13:37;2.20;;;0.90;;
38238;SDS011;24035;48.900;9.188;2023-05-16T14:16:04;2.72;;;0.90;;
38238;SDS011;24035;48.900;9.188;2023-05-16T14:18:31;2.00;;;0.80;;
38238;SDS011;24035;48.900;9.188;2023-05-16T14:20:57;3.65;;;0.70;;
38238;SDS011;24035;48.900;9.188;2023-05-16T14:23:22;3.50;;;0.95;;
38238;SDS011;24035;48.900;9.188;2023-05-16T14:25:48;3.15;;;0.80;;
38238;SDS011;24035;48.900;9.188;2023-05-16T14:28:14;2.72;;;0.90;;
38238;SDS011;24035;48.900;9.188;2023-05-16T14:30:39;2.17;;;0.75;;
38238;SDS011;24035;48.900;9.188;2023-05-16T14:33:05;2.10;;;0.68;;
38238;SDS011;24035;48.900;9.188;2023-05-16T14:35:31;1.88;;;0.65;;
38238;SDS011;24035;48.900;9.188;2023-05-16T14:37:57;4.75;;;0.60;;
38238;SDS011;24035;48.900;9.188;2023-05-16T14:40:22;3.85;;;0.60;;
38238;SDS011;24035;48.900;9.188;2023-05-16T14:42:48;2.15;;;0.75;;
38238;SDS011;24035;48.900;9.188;2023-05-16T14:45:15;3.08;;;0.50;;
38238;SDS011;24035;48.900;9.188;2023-05-16T14:47:41;4.60;;;0.82;;
38238;SDS011;24035;48.900;9.188;2023-05-16T14:50:07;1.67;;;0.73;;
38238;SDS011;24035;48.900;9.188;2023-05-16T14:52:33;1.85;;;0.77;;
38238;SDS011;24035;48.900;9.188;2023-05-16T14:54:58;3.08;;;0.88;;
38238;SDS011;24035;48.900;9.188;2023-05-16T14:57:25;3.00;;;0.50;;